Time;durP1;ratioP1;P1;durP2;ratioP2;P2;SDS_P1;SDS_P2;PMS_P1;PMS_P2;Temp;Humidity;BMP_temperature;BMP_pressure;BME280_temperature;BME280_humidity;BME280_pressure;Samples;Min_cycle;Max_cycle;Signal;HPM_P1;HPM_P2
2023/06/28 00:02:22;;;;;;;382.40;368.07;;;14.80;81.40;;;;;;5094521;28;20844;-69
2023/06/28 00:04:49;;;;;;;433.50;416.47;;;14.90;82.60;;;;;;5094229;28;20461;-69
2023/06/28 00:07:16;;;;;;;465.17;446.07;;;14.80;84.00;;;;;;5094520;28;20501;-69
2023/06/28 00:09:44;;;;;;;513.17;491.97;;;14.90;84.90;;;;;;5093997;28;20825;-69
2023/06/28 00:12:11;;;;;;;477.23;458.27;;;14.80;84.60;;;;;;5094508;28;20493;-70
2023/06/28 00:14:38;;;;;;;481.03;461.40;;;14.90;84.10;;;;;;5093842;28;20453;-69
2023/06/28 00:17:05;;;;;;;502.20;481.60;;;14.90;84.70;;;;;;5094461;28;20450;-69
2023/06/28 00:19:32;;;;;;;501.87;481.07;;;15.00;85.00;;;;;;5094067;28;20457;-69
2023/06/28 00:21:59;;;;;;;539.77;516.27;;;15.00;85.40;;;;;;5094172;28;20456;-69
2023/06/28 00:24:27;;;;;;;563.27;537.57;;;15.00;86.40;;;;;;5093504;28;20485;-69
2023/06/28 00:26:55;;;;;;;549.77;525.40;;;15.00;88.20;;;;;;5094003;28;20560;-69
2023/06/28 00:29:22;;;;;;;491.57;470.57;;;15.00;87.40;;;;;;5093935;28;20464;-69
2023/06/28 00:31:49;;;;;;;508.27;486.03;;;14.90;87.00;;;;;;5094138;28;20456;-69
2023/06/28 00:34:16;;;;;;;526.20;503.83;;;15.00;87.50;;;;;;5093453;28;20450;-70
2023/06/28 00:36:42;;;;;;;559.73;534.57;;;14.90;88.60;;;;;;5093994;28;20454;-70
2023/06/28 00:39:09;;;;;;;551.77;527.27;;;14.90;89.10;;;;;;5093783;28;20579;-69
2023/06/28 00:41:36;;;;;;;584.63;558.50;;;14.80;89.00;;;;;;5093502;28;20449;-70
2023/06/28 00:44:06;;;;;;;603.07;574.97;;;14.70;88.90;;;;;;5093470;28;20545;-69
2023/06/28 00:46:32;;;;;;;576.77;551.40;;;14.70;88.90;;;;;;5093626;28;20492;-69
2023/06/28 00:48:59;;;;;;;541.53;518.23;;;14.70;88.70;;;;;;5093444;28;20450;-69
2023/06/28 00:51:28;;;;;;;541.10;517.90;;;14.70;87.60;;;;;;5093301;28;20453;-69
2023/06/28 00:53:55;;;;;;;549.80;527.10;;;14.70;87.50;;;;;;5093602;28;20788;-69
2023/06/28 00:56:22;;;;;;;612.60;584.70;;;14.60;87.60;;;;;;5093279;28;20521;-69
2023/06/28 00:58:50;;;;;;;691.60;656.93;;;14.70;89.00;;;;;;5093315;28;20469;-69
2023/06/28 01:01:19;;;;;;;779.63;734.03;;;14.70;90.80;;;;;;5093204;28;20455;-69
2023/06/28 01:03:45;;;;;;;739.80;699.80;;;14.70;92.90;;;;;;5093163;28;20454;-69
2023/06/28 01:06:13;;;;;;;686.77;652.50;;;14.70;91.90;;;;;;5092615;28;20463;-69
2023/06/28 01:08:41;;;;;;;687.53;652.67;;;14.70;91.30;;;;;;5093317;28;20478;-69
2023/06/28 01:11:08;;;;;;;751.10;710.77;;;14.80;91.10;;;;;;5093165;28;20457;-69
2023/06/28 01:13:36;;;;;;;762.40;721.13;;;14.80;91.80;;;;;;5093160;28;20472;-70
2023/06/28 01:16:04;;;;;;;725.43;687.90;;;14.80;91.90;;;;;;5092760;28;20454;-69
2023/06/28 01:18:33;;;;;;;695.90;661.40;;;14.80;91.50;;;;;;5093411;28;20488;-70
2023/06/28 01:21:02;;;;;;;752.60;712.70;;;14.70;90.70;;;;;;5092342;28;20446;-70
2023/06/28 01:23:31;;;;;;;804.17;757.27;;;14.60;91.70;;;;;;5092676;28;20468;-70
2023/06/28 01:26:02;;;;;;;815.87;767.37;;;14.60;92.90;;;;;;5092568;28;20875;-69
2023/06/28 01:28:30;;;;;;;824.80;774.07;;;14.60;92.90;;;;;;5092591;28;20997;-70
2023/06/28 01:30:57;;;;;;;844.73;790.63;;;14.50;92.80;;;;;;5092577;28;20489;-69
2023/06/28 01:33:24;;;;;;;865.70;807.90;;;14.50;94.30;;;;;;5092531;28;20453;-69
2023/06/28 01:35:51;;;;;;;862.47;800.43;;;14.40;96.20;;;;;;5092138;28;20465;-69
2023/06/28 01:38:18;;;;;;;855.17;792.17;;;14.40;97.20;;;;;;5092733;28;20448;-69
2023/06/28 01:40:50;;;;;;;863.73;803.80;;;14.40;97.80;;;;;;5091370;28;20453;-69
2023/06/28 01:43:17;;;;;;;854.27;796.07;;;14.30;97.40;;;;;;5092661;28;20956;-69
2023/06/28 01:45:44;;;;;;;847.43;791.00;;;14.30;97.40;;;;;;5092329;28;20476;-69
2023/06/28 01:48:11;;;;;;;828.17;773.83;;;14.30;97.10;;;;;;5092369;28;20477;-69
2023/06/28 01:50:38;;;;;;;806.87;756.80;;;14.30;96.40;;;;;;5092673;28;20829;-70
2023/06/28 01:53:06;;;;;;;815.70;765.03;;;14.30;96.10;;;;;;5092417;28;20449;-69
2023/06/28 01:55:34;;;;;;;783.07;737.47;;;14.30;96.10;;;;;;5091789;28;20453;-69
2023/06/28 01:58:02;;;;;;;738.70;699.50;;;14.30;95.30;;;;;;5092428;28;20446;-69
2023/06/28 02:00:29;;;;;;;740.67;701.57;;;14.30;94.50;;;;;;5092230;28;20531;-69
2023/06/28 02:02:55;;;;;;;700.67;665.97;;;14.30;94.40;;;;;;5091730;28;20456;-69
2023/06/28 02:05:23;;;;;;;731.83;693.23;;;14.30;94.20;;;;;;5092168;28;20937;-69
2023/06/28 02:07:50;;;;;;;758.00;715.23;;;14.30;94.40;;;;;;5092341;28;20477;-69
2023/06/28 02:10:18;;;;;;;780.53;732.30;;;14.40;95.40;;;;;;5092183;28;20853;-69
2023/06/28 02:12:44;;;;;;;807.00;755.93;;;14.40;96.10;;;;;;5092339;28;20894;-70
2023/06/28 02:15:14;;;;;;;801.57;750.60;;;14.40;96.40;;;;;;5091464;28;20446;-69
2023/06/28 02:17:40;;;;;;;781.70;731.90;;;14.40;96.40;;;;;;5092040;28;20454;-69
2023/06/28 02:20:10;;;;;;;809.87;757.87;;;14.40;96.20;;;;;;5092246;28;20457;-69
2023/06/28 02:22:37;;;;;;;827.37;771.87;;;14.40;96.80;;;;;;5092301;28;20941;-70
2023/06/28 02:25:05;;;;;;;823.53;768.27;;;14.40;97.60;;;;;;5091723;28;20460;-70
2023/06/28 02:27:32;;;;;;;809.77;756.57;;;14.40;97.70;;;;;;5092138;28;20564;-69
2023/06/28 02:29:59;;;;;;;809.90;757.47;;;14.40;97.50;;;;;;5091862;28;20450;-69
2023/06/28 02:32:30;;;;;;;812.83;760.40;;;14.30;97.30;;;;;;5092406;28;20456;-69
2023/06/28 02:34:57;;;;;;;821.50;766.80;;;14.30;97.60;;;;;;5091663;28;20464;-69
2023/06/28 02:37:24;;;;;;;829.00;774.23;;;14.40;98.00;;;;;;5092213;28;20453;-69
2023/06/28 02:39:50;;;;;;;830.23;773.40;;;14.40;98.10;;;;;;5091874;28;20937;-69
2023/06/28 02:42:17;;;;;;;843.50;785.70;;;14.40;99.30;;;;;;5091713;28;20926;-69
2023/06/28 02:44:44;;;;;;;841.57;783.97;;;14.40;99.40;;;;;;5091749;28;20461;-69
2023/06/28 02:47:11;;;;;;;857.10;798.63;;;14.40;99.40;;;;;;5092035;28;20481;-69
2023/06/28 02:49:39;;;;;;;845.83;786.13;;;14.40;99.40;;;;;;5091902;28;20453;-69
2023/06/28 02:52:07;;;;;;;843.83;784.07;;;14.40;99.40;;;;;;5091869;28;20962;-69
2023/06/28 02:54:34;;;;;;;849.03;788.33;;;14.40;99.40;;;;;;5091353;28;20525;-69
2023/06/28 02:57:01;;;;;;;847.10;786.90;;;14.40;99.90;;;;;;5091775;28;20453;-69
2023/06/28 02:59:27;;;;;;;870.30;808.47;;;14.40;99.90;;;;;;5091665;28;20445;-70
2023/06/28 03:01:54;;;;;;;848.43;786.63;;;14.40;99.90;;;;;;5092314;28;20453;-69
2023/06/28 03:04:21;;;;;;;850.13;787.07;;;14.40;99.90;;;;;;5090971;28;20454;-69
2023/06/28 03:06:50;;;;;;;848.37;785.70;;;14.40;99.90;;;;;;5091545;28;20449;-69
2023/06/28 03:09:17;;;;;;;846.37;784.70;;;14.40;99.90;;;;;;5091411;28;20503;-69
2023/06/28 03:11:44;;;;;;;856.60;795.60;;;14.40;99.90;;;;;;5091650;28;20925;-70
2023/06/28 03:14:10;;;;;;;846.63;783.90;;;14.40;99.90;;;;;;5092780;28;20450;-69
2023/06/28 03:16:38;;;;;;;835.53;772.93;;;14.40;99.90;;;;;;5095486;28;20456;-69
2023/06/28 03:19:06;;;;;;;834.97;770.57;;;14.40;99.90;;;;;;5094882;28;20446;-70
2023/06/28 03:21:33;;;;;;;851.67;789.67;;;14.50;99.90;;;;;;5095286;28;20955;-69
2023/06/28 03:24:01;;;;;;;849.20;785.80;;;14.60;99.90;;;;;;5094726;28;20446;-69
2023/06/28 03:26:29;;;;;;;844.30;782.37;;;14.70;99.90;;;;;;5095121;28;20958;-69
2023/06/28 03:28:57;;;;;;;820.13;761.03;;;14.70;99.90;;;;;;5094978;28;20473;-70
2023/06/28 03:31:24;;;;;;;831.50;772.03;;;14.80;99.90;;;;;;5089267;28;20525;-69
2023/06/28 03:33:51;;;;;;;841.73;780.50;;;14.80;99.90;;;;;;5084611;28;20450;-69
2023/06/28 03:36:19;;;;;;;839.20;776.70;;;14.80;99.90;;;;;;5074189;28;20489;-70
2023/06/28 03:38:45;;;;;;;828.43;768.00;;;14.90;99.90;;;;;;5082515;28;20446;-70
2023/06/28 03:41:14;;;;;;;826.93;769.00;;;14.90;99.90;;;;;;5080407;28;20458;-69
2023/06/28 03:43:41;;;;;;;841.40;780.20;;;14.90;99.90;;;;;;5074657;28;20512;-69
2023/06/28 03:46:08;;;;;;;831.07;772.10;;;15.00;99.90;;;;;;5074230;28;20568;-69
2023/06/28 03:48:35;;;;;;;824.47;766.57;;;15.00;99.90;;;;;;5074390;28;20474;-70
2023/06/28 03:51:01;;;;;;;807.53;752.80;;;15.10;99.90;;;;;;5074264;28;20458;-71
2023/06/28 03:53:28;;;;;;;807.40;752.83;;;15.00;99.90;;;;;;5077583;28;20484;-70
2023/06/28 03:55:55;;;;;;;830.20;771.13;;;15.10;99.90;;;;;;5094179;28;20450;-69
2023/06/28 03:58:23;;;;;;;827.87;766.87;;;15.10;99.90;;;;;;5090290;28;20521;-70
2023/06/28 04:00:51;;;;;;;829.83;769.43;;;15.20;99.90;;;;;;5081811;28;20458;-69
2023/06/28 04:03:18;;;;;;;844.33;782.90;;;15.20;99.90;;;;;;5086156;28;20482;-70
2023/06/28 04:05:45;;;;;;;861.73;799.03;;;15.20;99.90;;;;;;5082165;28;20446;-69
2023/06/28 04:08:11;;;;;;;843.53;779.83;;;15.30;99.90;;;;;;5094354;28;20477;-70
2023/06/28 04:10:39;;;;;;;837.37;775.50;;;15.30;99.90;;;;;;5094131;28;20454;-69
2023/06/28 04:13:06;;;;;;;828.93;769.30;;;15.30;99.90;;;;;;5094261;28;20457;-69
2023/06/28 04:15:34;;;;;;;824.10;766.83;;;15.30;99.90;;;;;;5093941;28;20456;-71
2023/06/28 04:18:01;;;;;;;839.60;782.90;;;15.40;99.90;;;;;;5094123;28;20488;-69
2023/06/28 04:20:28;;;;;;;836.90;780.80;;;15.30;99.90;;;;;;5089339;28;20449;-69
2023/06/28 04:22:54;;;;;;;833.90;777.30;;;15.30;99.90;;;;;;5080118;28;20453;-69
2023/06/28 04:25:21;;;;;;;824.53;767.33;;;15.30;99.90;;;;;;5075360;28;20457;-69
2023/06/28 04:27:48;;;;;;;823.83;767.20;;;15.40;99.90;;;;;;5072966;28;20451;-69
2023/06/28 04:30:15;;;;;;;819.10;764.80;;;15.40;99.90;;;;;;5093763;28;20446;-69
2023/06/28 04:32:44;;;;;;;816.50;762.10;;;15.40;99.90;;;;;;5093873;28;20488;-68
2023/06/28 04:35:14;;;;;;;794.27;742.50;;;15.40;99.90;;;;;;5093593;28;20465;-69
2023/06/28 04:37:43;;;;;;;778.70;730.30;;;15.40;99.90;;;;;;5094031;28;20454;-69
2023/06/28 04:40:11;;;;;;;779.80;733.10;;;15.50;99.90;;;;;;5093516;28;20503;-69
2023/06/28 04:42:38;;;;;;;805.77;755.30;;;15.50;99.90;;;;;;5093738;28;20453;-69
2023/06/28 04:45:07;;;;;;;786.50;738.10;;;15.60;99.90;;;;;;5092963;28;20446;-68
2023/06/28 04:47:35;;;;;;;736.23;696.10;;;15.60;99.90;;;;;;5093691;28;20545;-69
2023/06/28 04:50:04;;;;;;;693.50;657.67;;;15.70;99.00;;;;;;5093594;28;21064;-68
2023/06/28 04:52:31;;;;;;;726.27;689.60;;;15.80;97.60;;;;;;5093700;28;20802;-68
2023/06/28 04:54:58;;;;;;;686.07;652.67;;;15.80;98.00;;;;;;5092757;28;20477;-68
2023/06/28 04:57:24;;;;;;;616.30;589.13;;;15.90;97.20;;;;;;5093510;28;20454;-68
2023/06/28 04:59:51;;;;;;;513.33;492.73;;;16.00;96.80;;;;;;5093070;28;20450;-68
2023/06/28 05:02:21;;;;;;;484.60;465.70;;;16.00;96.80;;;;;;5093165;28;20458;-69
2023/06/28 05:04:47;;;;;;;428.17;411.47;;;16.10;96.60;;;;;;5093084;28;20481;-69
2023/06/28 05:07:16;;;;;;;401.30;386.20;;;16.10;96.20;;;;;;5093155;28;20477;-68
2023/06/28 05:09:43;;;;;;;319.23;308.50;;;16.10;95.30;;;;;;5092983;28;20473;-69
2023/06/28 05:12:10;;;;;;;364.97;351.97;;;16.10;94.20;;;;;;5092880;28;20782;-68
2023/06/28 05:14:36;;;;;;;443.23;425.03;;;16.10;95.20;;;;;;5092628;28;20540;-69
2023/06/28 05:17:04;;;;;;;449.30;431.07;;;16.10;96.30;;;;;;5093284;28;20454;-69
2023/06/28 05:19:30;;;;;;;500.40;479.33;;;16.10;96.40;;;;;;5093112;28;20450;-68
2023/06/28 05:21:57;;;;;;;504.00;481.70;;;16.10;96.90;;;;;;5093018;28;20456;-68
2023/06/28 05:24:25;;;;;;;513.97;491.27;;;16.10;96.90;;;;;;5092450;28;20887;-68
2023/06/28 05:26:52;;;;;;;589.93;562.07;;;16.20;96.90;;;;;;5092131;28;20456;-68
2023/06/28 05:29:19;;;;;;;550.23;524.87;;;16.30;97.60;;;;;;5093104;28;20844;-68
2023/06/28 05:31:46;;;;;;;623.80;595.43;;;16.30;96.90;;;;;;5093070;28;20450;-69
2023/06/28 05:34:13;;;;;;;575.90;551.10;;;16.40;97.40;;;;;;5086372;28;20461;-68
2023/06/28 05:36:46;;;;;;;549.37;525.70;;;16.40;97.00;;;;;;5077400;28;20455;-68
2023/06/28 05:39:13;;;;;;;590.93;566.03;;;16.40;97.00;;;;;;5072056;28;20442;-68
2023/06/28 05:41:41;;;;;;;499.10;479.97;;;16.40;96.60;;;;;;5071758;28;20490;-69
2023/06/28 05:44:08;;;;;;;471.47;453.77;;;16.50;95.60;;;;;;5071862;28;20459;-69
2023/06/28 05:46:35;;;;;;;427.77;411.90;;;16.50;95.60;;;;;;5072849;28;20450;-69
2023/06/28 05:49:07;;;;;;;394.57;380.67;;;16.50;95.00;;;;;;5072747;28;20478;-69
2023/06/28 05:51:34;;;;;;;356.10;344.63;;;16.60;94.70;;;;;;5072640;28;20465;-68
2023/06/28 05:54:02;;;;;;;397.17;383.53;;;16.60;94.70;;;;;;5084529;28;20449;-68
2023/06/28 05:56:29;;;;;;;292.13;282.80;;;16.60;94.60;;;;;;5092542;28;20505;-69
2023/06/28 05:58:57;;;;;;;226.07;218.87;;;16.60;93.70;;;;;;5090654;28;20442;-69
2023/06/28 06:01:24;;;;;;;191.60;185.30;;;16.60;93.70;;;;;;5092113;28;20454;-69
2023/06/28 06:03:51;;;;;;;186.60;180.33;;;16.50;93.70;;;;;;5092355;28;20457;-68
2023/06/28 06:06:18;;;;;;;276.57;267.77;;;16.40;93.60;;;;;;5091983;28;20465;-68
2023/06/28 06:08:45;;;;;;;305.43;295.73;;;16.30;93.60;;;;;;5091134;28;21056;-68
2023/06/28 06:11:12;;;;;;;327.67;316.93;;;16.40;93.60;;;;;;5092071;28;20460;-69
2023/06/28 06:13:39;;;;;;;175.50;169.40;;;16.40;93.60;;;;;;5091678;28;21106;-68
2023/06/28 06:16:07;;;;;;;121.90;117.10;;;16.30;92.70;;;;;;5091128;28;21046;-69
2023/06/28 06:18:36;;;;;;;151.83;146.70;;;16.30;92.80;;;;;;5091523;28;20446;-69
2023/06/28 06:21:03;;;;;;;230.87;222.97;;;16.30;92.80;;;;;;5091289;28;20446;-69
2023/06/28 06:23:29;;;;;;;178.10;172.27;;;16.30;93.60;;;;;;5092080;28;20548;-71
2023/06/28 06:25:56;;;;;;;177.37;171.20;;;16.30;92.80;;;;;;5091925;28;20465;-69
2023/06/28 06:28:23;;;;;;;219.40;212.47;;;16.30;92.90;;;;;;5091760;28;20450;-69
2023/06/28 06:30:50;;;;;;;205.20;198.50;;;16.40;92.80;;;;;;5091933;28;20449;-69
2023/06/28 06:33:18;;;;;;;126.37;122.13;;;16.50;92.20;;;;;;5092006;28;20450;-69
2023/06/28 06:35:45;;;;;;;184.93;178.50;;;16.50;91.40;;;;;;5091415;28;20466;-70
2023/06/28 06:38:12;;;;;;;177.77;171.57;;;16.60;91.80;;;;;;5092046;28;20464;-69
2023/06/28 06:40:39;;;;;;;140.20;134.80;;;16.70;92.00;;;;;;5091393;28;20949;-69
2023/06/28 06:43:05;;;;;;;225.23;217.83;;;16.70;91.90;;;;;;5091389;28;20473;-69
2023/06/28 06:45:32;;;;;;;201.17;193.97;;;16.80;92.50;;;;;;5075869;28;20454;-69
2023/06/28 06:47:59;;;;;;;261.30;252.73;;;16.90;92.20;;;;;;5071965;28;20814;-68
2023/06/28 06:50:27;;;;;;;233.33;226.03;;;17.00;92.80;;;;;;5075054;28;20478;-69
2023/06/28 06:52:54;;;;;;;255.67;247.70;;;17.00;92.70;;;;;;5085911;28;20446;-69
2023/06/28 06:55:22;;;;;;;188.23;181.63;;;17.10;92.20;;;;;;5080262;28;20461;-69
2023/06/28 06:57:49;;;;;;;263.57;255.47;;;17.10;92.40;;;;;;5074795;28;20512;-69
2023/06/28 07:00:18;;;;;;;130.67;125.37;;;17.30;92.30;;;;;;5074109;28;20450;-69
2023/06/28 07:02:45;;;;;;;129.27;124.83;;;17.40;91.50;;;;;;5074085;28;20454;-69
2023/06/28 07:05:12;;;;;;;57.47;54.60;;;17.50;91.50;;;;;;5092978;28;20457;-69
2023/06/28 07:07:40;;;;;;;49.57;47.23;;;17.50;90.70;;;;;;5094438;28;20458;-69
2023/06/28 07:10:08;;;;;;;87.00;83.47;;;17.60;90.70;;;;;;5094333;28;20484;-69
2023/06/28 07:12:35;;;;;;;23.17;21.70;;;17.80;90.50;;;;;;5094028;28;20805;-69
2023/06/28 07:15:02;;;;;;;8.50;5.70;;;17.90;86.30;;;;;;5093303;28;20503;-70
2023/06/28 07:17:30;;;;;;;8.20;4.50;;;17.90;84.20;;;;;;5093599;28;20682;-70
2023/06/28 07:19:57;;;;;;;12.33;4.00;;;18.00;84.20;;;;;;5095194;28;20464;-70
2023/06/28 07:22:24;;;;;;;8.23;5.13;;;18.00;82.80;;;;;;5097433;28;20454;-68
2023/06/28 07:24:52;;;;;;;8.70;6.30;;;18.10;84.30;;;;;;5094027;28;20970;-70
2023/06/28 07:27:19;;;;;;;7.40;3.80;;;18.20;84.40;;;;;;5094008;28;20449;-70
2023/06/28 07:29:45;;;;;;;8.57;3.30;;;18.30;79.80;;;;;;5093579;28;20469;-70
2023/06/28 07:32:12;;;;;;;8.40;3.53;;;18.30;76.60;;;;;;5095292;28;20457;-68
2023/06/28 07:34:39;;;;;;;9.57;3.60;;;18.40;77.20;;;;;;5094765;28;20469;-69
2023/06/28 07:37:06;;;;;;;8.40;4.00;;;18.60;77.00;;;;;;5094160;28;20454;-69
2023/06/28 07:39:33;;;;;;;16.47;3.43;;;18.90;76.40;;;;;;5095212;28;20840;-69
2023/06/28 07:42:02;;;;;;;9.10;3.10;;;19.10;75.60;;;;;;5093558;28;20446;-69
2023/06/28 07:44:29;;;;;;;8.23;3.30;;;19.30;73.60;;;;;;5094556;28;20827;-69
2023/06/28 07:46:56;;;;;;;10.57;2.83;;;19.50;70.20;;;;;;5094978;28;20449;-69
2023/06/28 07:49:23;;;;;;;8.50;2.93;;;19.70;69.80;;;;;;5094767;28;20531;-69
2023/06/28 07:51:49;;;;;;;5.90;2.50;;;19.70;65.90;;;;;;5095106;28;20500;-69
2023/06/28 07:54:16;;;;;;;9.33;2.30;;;19.90;66.70;;;;;;5094295;28;20476;-69
2023/06/28 07:56:43;;;;;;;7.23;2.17;;;19.90;61.70;;;;;;5094751;28;20450;-69
2023/06/28 07:59:11;;;;;;;5.83;2.37;;;19.90;57.90;;;;;;5094511;28;20457;-68
2023/06/28 08:01:38;;;;;;;7.57;2.50;;;19.90;53.10;;;;;;5093853;28;20493;-69
2023/06/28 08:04:05;;;;;;;5.87;2.73;;;19.90;53.10;;;;;;5094082;28;20456;-69
2023/06/28 08:06:31;;;;;;;5.87;2.20;;;20.00;52.60;;;;;;5094859;28;20458;-70
2023/06/28 08:08:58;;;;;;;10.13;2.63;;;19.90;53.20;;;;;;5094371;28;20933;-69
2023/06/28 08:11:26;;;;;;;9.43;3.53;;;20.00;55.60;;;;;;5094463;28;20449;-70
2023/06/28 08:13:53;;;;;;;9.63;2.90;;;19.80;53.10;;;;;;5094534;28;20482;-69
2023/06/28 08:16:21;;;;;;;12.87;3.57;;;19.80;58.00;;;;;;5094369;28;20613;-69
2023/06/28 08:18:48;;;;;;;6.70;2.97;;;19.80;61.60;;;;;;5094317;28;20461;-69
2023/06/28 08:21:15;;;;;;;10.33;2.50;;;19.70;61.60;;;;;;5094231;28;20449;-69
2023/06/28 08:23:42;;;;;;;10.20;3.30;;;19.60;55.40;;;;;;5094213;28;20833;-70
2023/06/28 08:26:09;;;;;;;7.07;2.50;;;19.50;57.20;;;;;;5093804;28;20546;-69
2023/06/28 08:28:36;;;;;;;8.40;3.37;;;19.50;60.70;;;;;;5094088;28;20527;-70
2023/06/28 08:31:03;;;;;;;11.40;3.10;;;19.40;59.50;;;;;;5093826;28;20473;-69
2023/06/28 08:33:31;;;;;;;9.00;3.20;;;19.40;61.30;;;;;;5094093;28;20960;-69
2023/06/28 08:35:58;;;;;;;11.20;3.53;;;19.40;60.30;;;;;;5093583;28;20472;-70
2023/06/28 08:38:25;;;;;;;13.73;4.30;;;19.40;61.00;;;;;;5093947;28;20519;-70
2023/06/28 08:40:52;;;;;;;8.20;3.57;;;19.40;61.10;;;;;;5093702;28;20446;-69
2023/06/28 08:43:21;;;;;;;11.90;3.80;;;19.40;61.30;;;;;;5093612;28;20457;-69
2023/06/28 08:45:48;;;;;;;9.40;3.60;;;19.40;61.30;;;;;;5093684;28;20456;-70
2023/06/28 08:48:15;;;;;;;10.33;3.93;;;19.50;63.80;;;;;;5094196;28;20454;-69
2023/06/28 08:50:45;;;;;;;10.07;3.30;;;19.70;63.50;;;;;;5093656;28;20564;-69
2023/06/28 08:53:18;;;;;;;6.90;2.97;;;19.80;61.60;;;;;;5093691;28;20453;-70
2023/06/28 08:55:46;;;;;;;10.43;3.30;;;19.80;58.00;;;;;;5092988;28;20527;-69
2023/06/28 08:58:13;;;;;;;12.33;4.03;;;19.80;58.40;;;;;;5093990;28;20449;-69
2023/06/28 09:00:42;;;;;;;8.50;3.87;;;19.60;58.90;;;;;;5093236;28;20456;-69
2023/06/28 09:03:10;;;;;;;11.73;3.53;;;19.60;56.30;;;;;;5093544;28;20499;-70
2023/06/28 09:05:37;;;;;;;7.30;3.17;;;19.50;54.90;;;;;;5093224;28;20458;-70
2023/06/28 09:08:06;;;;;;;8.80;3.13;;;19.50;56.90;;;;;;5093375;28;20450;-69
2023/06/28 09:10:34;;;;;;;9.87;3.90;;;19.30;53.30;;;;;;5093294;28;20523;-70
2023/06/28 09:13:02;;;;;;;8.40;2.70;;;19.20;55.00;;;;;;5093385;28;20511;-69
2023/06/28 09:15:29;;;;;;;10.63;3.60;;;19.10;56.40;;;;;;5093043;28;20451;-69
2023/06/28 09:17:56;;;;;;;10.20;3.20;;;19.10;55.50;;;;;;5093139;28;20450;-70
2023/06/28 09:20:23;;;;;;;15.90;4.17;;;19.10;56.70;;;;;;5092950;28;20811;-69
2023/06/28 09:22:55;;;;;;;7.90;3.07;;;19.10;56.80;;;;;;5092711;28;20454;-69
2023/06/28 09:25:24;;;;;;;17.13;3.40;;;19.10;55.70;;;;;;5082366;28;20456;-69
2023/06/28 09:27:51;;;;;;;8.97;3.53;;;19.20;54.00;;;;;;5093721;28;20461;-69
2023/06/28 09:30:19;;;;;;;12.37;3.60;;;19.30;53.00;;;;;;5093203;28;20474;-70
2023/06/28 09:32:50;;;;;;;8.80;3.70;;;19.40;52.70;;;;;;5093486;28;20450;-69
2023/06/28 09:35:17;;;;;;;13.17;3.10;;;19.50;52.70;;;;;;5092745;28;20462;-69
2023/06/28 09:37:44;;;;;;;11.70;3.83;;;19.80;53.00;;;;;;5093472;28;20458;-70
2023/06/28 09:40:16;;;;;;;14.20;3.60;;;20.30;53.50;;;;;;5093107;28;20507;-70
2023/06/28 09:42:46;;;;;;;8.20;4.03;;;20.60;51.10;;;;;;5093162;28;20449;-69
2023/06/28 09:45:24;;;;;;;13.20;4.40;;;20.80;48.90;;;;;;5092875;28;20461;-69
2023/06/28 09:47:56;;;;;;;13.00;3.80;;;21.10;44.80;;;;;;5093395;28;20472;-69
2023/06/28 09:50:25;;;;;;;12.77;4.17;;;21.10;41.30;;;;;;5092421;28;20507;-69
2023/06/28 09:52:52;;;;;;;8.00;3.53;;;21.30;38.30;;;;;;5092755;28;20454;-69
2023/06/28 09:55:19;;;;;;;7.73;2.83;;;21.60;37.60;;;;;;5092171;28;20454;-69
2023/06/28 09:57:48;;;;;;;10.20;3.60;;;21.50;36.70;;;;;;5092419;28;20446;-68
2023/06/28 10:00:16;;;;;;;9.80;3.50;;;21.40;36.60;;;;;;5092230;28;20532;-69
2023/06/28 10:02:43;;;;;;;12.50;2.87;;;21.30;37.60;;;;;;5092719;28;20449;-69
2023/06/28 10:05:11;;;;;;;10.30;2.80;;;21.60;36.80;;;;;;5088846;28;20441;-68
2023/06/28 10:07:40;;;;;;;9.20;3.93;;;21.60;32.20;;;;;;5091416;28;20824;-69
2023/06/28 10:10:09;;;;;;;8.10;3.50;;;22.10;34.20;;;;;;5092225;28;20470;-69
2023/06/28 10:12:37;;;;;;;12.60;3.70;;;22.30;31.00;;;;;;5092480;28;20866;-68
2023/06/28 10:15:10;;;;;;;14.23;3.40;;;22.30;28.70;;;;;;5091381;28;20461;-69
2023/06/28 10:17:38;;;;;;;13.27;3.20;;;22.50;28.80;;;;;;5092545;28;20453;-69
2023/06/28 10:20:07;;;;;;;10.00;3.90;;;22.70;29.00;;;;;;5087913;28;20446;-69
2023/06/28 10:22:34;;;;;;;7.50;2.90;;;22.90;29.10;;;;;;5092328;28;20453;-69
2023/06/28 10:25:02;;;;;;;11.40;3.60;;;23.30;27.70;;;;;;5095125;28;20449;-69
2023/06/28 10:27:29;;;;;;;10.37;3.70;;;23.50;27.00;;;;;;5096299;28;20453;-68
2023/06/28 10:29:58;;;;;;;19.37;4.53;;;23.50;25.90;;;;;;5096096;28;20471;-69
2023/06/28 10:32:26;;;;;;;10.57;3.60;;;23.70;27.30;;;;;;5096553;28;20807;-69
2023/06/28 10:34:54;;;;;;;10.33;3.20;;;23.40;24.40;;;;;;5095410;28;20450;-69
2023/06/28 10:37:22;;;;;;;10.13;3.13;;;23.50;28.00;;;;;;5096288;28;20933;-69
2023/06/28 10:39:51;;;;;;;8.17;3.00;;;23.30;26.30;;;;;;5091160;28;20446;-69
2023/06/28 10:42:19;;;;;;;6.47;2.80;;;23.20;27.00;;;;;;5089848;28;20507;-69
2023/06/28 10:44:53;;;;;;;15.33;3.20;;;23.40;29.50;;;;;;5095856;28;20460;-69
2023/06/28 10:47:20;;;;;;;12.27;3.50;;;23.40;25.80;;;;;;5096127;28;20449;-69
2023/06/28 10:50:07;;;;;;;9.07;3.43;;;23.70;26.80;;;;;;5095758;28;20449;-69
2023/06/28 10:52:34;;;;;;;8.80;3.03;;;23.90;26.00;;;;;;5095968;28;20449;-69
2023/06/28 10:55:02;;;;;;;9.73;3.00;;;23.70;26.10;;;;;;5094918;28;20450;-69
2023/06/28 10:57:37;;;;;;;14.30;3.10;;;23.60;22.30;;;;;;5096056;28;20964;-69
2023/06/28 11:00:09;;;;;;;9.30;2.70;;;23.40;22.20;;;;;;5095622;28;20441;-69
2023/06/28 11:02:52;;;;;;;11.90;3.10;;;23.30;22.10;;;;;;5095861;28;20449;-69
2023/06/28 11:05:39;;;;;;;8.03;3.13;;;23.20;25.00;;;;;;5095322;28;20446;-68
2023/06/28 11:08:10;;;;;;;7.03;3.13;;;23.10;22.90;;;;;;5095702;28;20531;-68
2023/06/28 11:10:38;;;;;;;15.60;3.20;;;23.10;25.30;;;;;;5095789;28;20477;-69
2023/06/28 11:13:08;;;;;;;10.97;3.37;;;23.10;21.90;;;;;;5095216;28;20460;-69
2023/06/28 11:15:35;;;;;;;11.30;3.00;;;23.10;23.80;;;;;;5093672;28;20490;-68
2023/06/28 11:18:16;;;;;;;8.50;2.90;;;23.30;23.20;;;;;;5091831;28;20450;-69
2023/06/28 11:20:57;;;;;;;10.23;3.40;;;23.60;23.00;;;;;;5075388;28;20450;-69
2023/06/28 11:23:28;;;;;;;7.47;2.60;;;23.60;25.80;;;;;;5076469;28;20450;-70
2023/06/28 11:26:01;;;;;;;8.93;2.97;;;23.40;22.20;;;;;;5092581;28;20441;-71
2023/06/28 11:28:30;;;;;;;22.37;6.27;;;23.60;22.70;;;;;;5095541;28;20457;-72
2023/06/28 11:30:58;;;;;;;9.03;3.23;;;23.80;22.40;;;;;;5095630;28;20473;-73
2023/06/28 11:33:31;;;;;;;10.93;3.07;;;23.90;22.50;;;;;;5095656;28;20464;-73
2023/06/28 11:35:59;;;;;;;8.33;3.37;;;24.00;22.60;;;;;;5093449;28;20949;-72
2023/06/28 11:38:26;;;;;;;8.93;2.47;;;24.30;21.60;;;;;;5095309;28;20457;-73
2023/06/28 11:40:54;;;;;;;7.13;3.20;;;24.00;20.90;;;;;;5094905;28;20494;-72
2023/06/28 11:43:22;;;;;;;9.60;3.00;;;24.20;22.00;;;;;;5095092;28;20465;-72
2023/06/28 11:45:50;;;;;;;10.97;3.30;;;24.00;22.60;;;;;;5094757;28;20454;-72
2023/06/28 11:48:17;;;;;;;8.90;3.77;;;23.90;22.50;;;;;;5094948;28;20454;-72
2023/06/28 11:50:44;;;;;;;11.57;4.20;;;24.20;20.00;;;;;;5094594;28;20471;-72
2023/06/28 11:53:13;;;;;;;10.80;3.10;;;24.40;21.70;;;;;;5094969;28;20449;-72
2023/06/28 11:55:40;;;;;;;7.00;2.97;;;24.30;20.10;;;;;;5094545;28;20450;-72
2023/06/28 11:58:07;;;;;;;7.27;3.17;;;24.50;22.90;;;;;;5094843;28;20453;-72
2023/06/28 12:00:40;;;;;;;8.73;2.40;;;24.90;23.20;;;;;;5094477;28;20453;-72
2023/06/28 12:03:07;;;;;;;8.10;2.90;;;25.50;16.10;;;;;;5094792;28;20453;-71
2023/06/28 12:05:34;;;;;;;9.30;2.90;;;25.20;15.90;;;;;;5094167;28;20449;-72
2023/06/28 12:08:01;;;;;;;8.03;2.77;;;25.70;15.20;;;;;;5094775;28;20457;-72
2023/06/28 12:10:35;;;;;;;10.33;3.13;;;26.00;14.90;;;;;;5094446;28;20851;-72
2023/06/28 12:13:02;;;;;;;11.50;2.90;;;25.90;13.20;;;;;;5094553;28;20471;-72
2023/06/28 12:15:30;;;;;;;12.20;2.80;;;26.20;13.90;;;;;;5094042;28;20449;-72
2023/06/28 12:17:57;;;;;;;9.70;2.77;;;26.30;12.40;;;;;;5094460;28;20968;-72
2023/06/28 12:20:24;;;;;;;7.70;2.97;;;26.20;11.00;;;;;;5094118;28;20523;-73
2023/06/28 12:22:50;;;;;;;9.50;2.90;;;26.50;9.70;;;;;;5094448;28;20456;-72
2023/06/28 12:25:26;;;;;;;10.00;3.00;;;26.60;11.80;;;;;;5094020;28;20450;-72
2023/06/28 12:28:03;;;;;;;9.57;3.57;;;26.90;9.20;;;;;;5094191;28;20461;-72